createdAt,value
2017-09-17T00:00:03.270Z,5.00
2017-09-17T00:02:29.912Z,5.43
2017-09-17T00:04:56.597Z,5.33
2017-09-17T00:07:23.250Z,5.30
2017-09-17T00:09:49.898Z,6.20
2017-09-17T00:12:16.661Z,5.60
2017-09-17T00:14:43.332Z,5.30
2017-09-17T00:17:09.989Z,5.93
2017-09-17T00:19:36.655Z,5.77
2017-09-17T00:22:03.296Z,5.33
2017-09-17T00:24:29.971Z,5.20
2017-09-17T00:26:56.635Z,5.23
2017-09-17T00:29:23.316Z,5.10
2017-09-17T00:31:49.963Z,5.27
2017-09-17T00:34:16.629Z,4.90
2017-09-17T00:36:43.280Z,4.90
2017-09-17T00:39:09.947Z,5.50
2017-09-17T00:41:36.585Z,5.30
2017-09-17T00:44:03.258Z,4.67
2017-09-17T00:46:29.904Z,4.77
2017-09-17T00:48:56.548Z,5.00
2017-09-17T00:51:23.225Z,4.60
2017-09-17T00:53:49.884Z,4.57
2017-09-17T00:56:16.550Z,4.20
2017-09-17T00:58:43.385Z,4.60
2017-09-17T01:01:10.017Z,4.33
2017-09-17T01:03:36.674Z,4.67
2017-09-17T01:06:03.361Z,3.80
2017-09-17T01:08:30.029Z,4.37
2017-09-17T01:10:56.686Z,4.23
2017-09-17T01:13:23.328Z,4.87
2017-09-17T01:15:50.008Z,4.33
2017-09-17T01:18:16.638Z,4.40
2017-09-17T01:20:43.272Z,4.90
2017-09-17T01:23:09.932Z,4.40
2017-09-17T01:25:36.563Z,4.37
2017-09-17T01:28:03.230Z,4.60
2017-09-17T01:30:29.882Z,4.53
2017-09-17T01:32:56.550Z,4.03
2017-09-17T01:35:23.189Z,4.20
2017-09-17T01:37:49.866Z,4.17
2017-09-17T01:40:16.567Z,4.57
2017-09-17T01:42:43.286Z,4.10
2017-09-17T01:45:09.930Z,3.57
2017-09-17T01:47:36.603Z,3.77
2017-09-17T01:50:03.251Z,4.10
2017-09-17T01:52:29.940Z,3.53
2017-09-17T01:54:56.567Z,3.97
2017-09-17T01:57:23.215Z,4.00
2017-09-17T01:59:49.875Z,4.57
2017-09-17T02:02:16.508Z,3.80
2017-09-17T02:04:43.190Z,3.63
2017-09-17T02:07:09.832Z,3.80
2017-09-17T02:09:36.476Z,3.50
2017-09-17T02:12:03.135Z,3.50
2017-09-17T02:14:29.805Z,3.70
2017-09-17T02:16:56.486Z,3.23
2017-09-17T02:19:23.163Z,3.80
2017-09-17T02:21:49.817Z,3.70
2017-09-17T02:24:16.491Z,3.90
2017-09-17T02:26:43.179Z,3.40
2017-09-17T02:29:09.824Z,3.67
2017-09-17T02:31:36.481Z,3.30
2017-09-17T02:34:03.185Z,3.77
2017-09-17T02:36:29.835Z,3.43
2017-09-17T02:38:56.469Z,3.80
2017-09-17T02:41:23.175Z,4.40
2017-09-17T02:43:49.820Z,3.60
2017-09-17T02:46:16.483Z,4.30
2017-09-17T02:48:43.138Z,3.63
2017-09-17T02:51:09.787Z,3.70
2017-09-17T02:53:36.455Z,3.50
2017-09-17T02:56:03.095Z,4.03
2017-09-17T02:58:29.763Z,3.57
2017-09-17T03:00:56.408Z,3.30
2017-09-17T03:03:23.075Z,4.37
2017-09-17T03:05:49.719Z,3.40
2017-09-17T03:08:16.407Z,3.43
2017-09-17T03:10:43.056Z,3.87
2017-09-17T03:13:09.707Z,3.73
2017-09-17T03:15:36.396Z,4.20
2017-09-17T03:18:03.045Z,3.70
2017-09-17T03:20:29.687Z,3.60
2017-09-17T03:22:56.372Z,3.70
2017-09-17T03:25:23.023Z,4.03
2017-09-17T03:27:49.675Z,3.80
2017-09-17T03:30:16.349Z,4.10
2017-09-17T03:32:43.029Z,4.10
2017-09-17T03:35:09.706Z,3.40
2017-09-17T03:37:36.381Z,4.10
2017-09-17T03:40:03.057Z,3.73
2017-09-17T03:42:29.678Z,4.23
2017-09-17T03:44:56.408Z,3.73
2017-09-17T03:47:23.064Z,4.33
2017-09-17T03:49:49.723Z,4.07
2017-09-17T03:52:16.391Z,3.60
2017-09-17T03:54:43.076Z,3.97
2017-09-17T03:57:09.724Z,4.20
2017-09-17T03:59:39.200Z,4.70
2017-09-17T04:02:05.881Z,4.80
2017-09-17T04:04:32.530Z,5.07
2017-09-17T04:06:59.182Z,4.30
2017-09-17T04:09:25.877Z,3.93
2017-09-17T04:11:52.509Z,4.90
2017-09-17T04:14:19.180Z,4.23
2017-09-17T04:16:45.857Z,4.20
2017-09-17T04:19:12.512Z,4.90
2017-09-17T04:21:39.139Z,4.10
2017-09-17T04:24:05.800Z,4.60
2017-09-17T04:26:32.472Z,5.20
2017-09-17T04:28:59.104Z,4.70
2017-09-17T04:31:25.739Z,4.60
2017-09-17T04:33:52.443Z,4.90
2017-09-17T04:36:19.070Z,4.03
2017-09-17T04:38:45.724Z,4.53
2017-09-17T04:41:12.408Z,4.13
2017-09-17T04:43:39.088Z,5.00
2017-09-17T04:46:05.723Z,4.80
2017-09-17T04:48:32.372Z,4.50
2017-09-17T04:50:59.037Z,4.20
2017-09-17T04:53:25.720Z,5.40
2017-09-17T04:55:52.398Z,4.60
2017-09-17T04:58:19.048Z,4.73
2017-09-17T05:00:45.714Z,4.27
2017-09-17T05:03:12.404Z,4.27
2017-09-17T05:05:39.037Z,4.40
2017-09-17T05:08:05.703Z,4.30
2017-09-17T05:10:32.344Z,4.37
2017-09-17T05:12:59.005Z,4.07
2017-09-17T05:15:25.630Z,3.13
2017-09-17T05:17:52.277Z,3.57
2017-09-17T05:20:18.929Z,3.37
2017-09-17T05:22:45.558Z,3.80
2017-09-17T05:25:12.223Z,3.63
2017-09-17T05:27:38.992Z,2.67
2017-09-17T05:30:05.668Z,3.10
2017-09-17T05:32:32.344Z,2.80
2017-09-17T05:34:59.024Z,2.73
2017-09-17T05:37:25.651Z,2.53
2017-09-17T05:39:52.286Z,2.40
2017-09-17T05:42:19.028Z,2.50
2017-09-17T05:44:45.665Z,2.70
2017-09-17T05:47:12.302Z,2.30
2017-09-17T05:49:38.979Z,1.97
2017-09-17T05:52:05.635Z,2.13
2017-09-17T05:54:32.299Z,2.70
2017-09-17T05:56:58.950Z,2.27
2017-09-17T05:59:25.594Z,2.53
2017-09-17T06:01:52.264Z,3.10
2017-09-17T06:04:18.936Z,2.30
2017-09-17T06:06:45.603Z,2.00
2017-09-17T06:09:12.275Z,1.80
2017-09-17T06:11:38.907Z,2.00
2017-09-17T06:14:05.539Z,1.93
2017-09-17T06:16:32.228Z,2.20
2017-09-17T06:18:58.900Z,1.97
2017-09-17T06:21:25.571Z,1.90
2017-09-17T06:23:52.221Z,1.60
2017-09-17T06:26:18.859Z,1.90
2017-09-17T06:28:45.530Z,2.07
2017-09-17T06:31:12.164Z,1.80
2017-09-17T06:33:38.814Z,1.80
2017-09-17T06:36:05.565Z,2.00
2017-09-17T06:38:32.191Z,1.70
2017-09-17T06:40:58.827Z,2.13
2017-09-17T06:43:25.487Z,2.70
2017-09-17T06:45:52.129Z,2.50
2017-09-17T06:48:18.759Z,2.67
2017-09-17T06:50:45.431Z,2.40
2017-09-17T06:53:12.096Z,2.00
2017-09-17T06:55:38.778Z,2.00
2017-09-17T06:58:05.472Z,2.20
2017-09-17T07:00:32.135Z,2.20
2017-09-17T07:02:58.807Z,2.17
2017-09-17T07:05:25.448Z,1.90
2017-09-17T07:07:52.112Z,2.00
2017-09-17T07:10:18.764Z,1.80
2017-09-17T07:12:45.408Z,1.93
2017-09-17T07:15:12.088Z,1.50
2017-09-17T07:17:38.720Z,1.70
2017-09-17T07:20:05.376Z,2.00
2017-09-17T07:22:32.049Z,1.90
2017-09-17T07:24:58.688Z,1.80
2017-09-17T07:27:25.321Z,1.63
2017-09-17T07:29:51.988Z,1.70
2017-09-17T07:32:18.631Z,2.00
2017-09-17T07:34:45.302Z,2.23
2017-09-17T07:37:11.960Z,2.30
2017-09-17T07:39:38.629Z,2.30
2017-09-17T07:42:05.300Z,2.60
2017-09-17T07:44:31.939Z,2.37
2017-09-17T07:46:58.679Z,2.40
2017-09-17T07:49:25.319Z,2.67
2017-09-17T07:51:51.992Z,2.63
2017-09-17T07:54:18.664Z,2.53
2017-09-17T07:56:45.340Z,2.30
2017-09-17T07:59:12.003Z,3.00
2017-09-17T08:01:38.626Z,3.27
2017-09-17T08:04:05.290Z,3.43
2017-09-17T08:06:31.921Z,3.20
2017-09-17T08:08:58.611Z,3.10
2017-09-17T08:11:25.256Z,3.03
2017-09-17T08:13:51.919Z,3.27
2017-09-17T08:16:18.597Z,2.50
2017-09-17T08:18:45.239Z,3.27
2017-09-17T08:21:11.906Z,2.97
2017-09-17T08:23:38.568Z,2.70
2017-09-17T08:26:05.231Z,3.23
2017-09-17T08:28:31.868Z,2.80
2017-09-17T08:30:58.536Z,2.03
2017-09-17T08:33:25.206Z,9.60
2017-09-17T08:35:51.882Z,2.97
2017-09-17T08:38:18.528Z,2.20
2017-09-17T08:40:45.181Z,2.00
2017-09-17T08:43:11.864Z,1.90
2017-09-17T08:45:38.605Z,2.50
2017-09-17T08:48:05.266Z,6.63
2017-09-17T08:50:31.933Z,2.40
2017-09-17T08:52:58.554Z,2.50
2017-09-17T08:55:25.345Z,1.90
2017-09-17T08:57:52.011Z,2.10
2017-09-17T09:00:18.643Z,1.93
2017-09-17T09:02:45.293Z,2.07
2017-09-17T09:05:11.954Z,1.93
2017-09-17T09:07:38.619Z,1.50
2017-09-17T09:10:05.264Z,1.80
2017-09-17T09:12:31.945Z,1.77
2017-09-17T09:14:58.616Z,1.50
2017-09-17T09:17:25.243Z,1.63
2017-09-17T09:19:51.912Z,1.40
2017-09-17T09:22:18.549Z,1.77
2017-09-17T09:24:45.186Z,1.60
2017-09-17T09:27:11.839Z,1.40
2017-09-17T09:29:38.498Z,1.70
2017-09-17T09:32:05.174Z,2.00
2017-09-17T09:34:31.842Z,2.00
2017-09-17T09:36:58.541Z,2.43
2017-09-17T09:39:25.187Z,2.13
2017-09-17T09:41:51.844Z,1.90
2017-09-17T09:44:18.525Z,2.37
2017-09-17T09:46:45.160Z,2.27
2017-09-17T09:49:11.836Z,2.17
2017-09-17T09:51:38.477Z,2.20
2017-09-17T09:54:05.231Z,2.53
2017-09-17T09:56:31.887Z,2.60
2017-09-17T09:58:58.610Z,3.00
2017-09-17T10:01:25.271Z,2.60
2017-09-17T10:03:51.904Z,2.63
2017-09-17T10:06:18.625Z,2.87
2017-09-17T10:08:45.272Z,2.50
2017-09-17T10:11:11.897Z,3.20
2017-09-17T10:13:38.641Z,3.30
2017-09-17T10:16:05.279Z,3.13
2017-09-17T10:18:31.917Z,3.13
2017-09-17T10:20:58.576Z,2.90
2017-09-17T10:23:25.257Z,3.20
2017-09-17T10:25:51.928Z,3.10
2017-09-17T10:28:18.558Z,2.70
2017-09-17T10:30:45.279Z,3.00
2017-09-17T10:33:11.908Z,2.73
2017-09-17T10:35:38.543Z,2.80
2017-09-17T10:38:05.209Z,2.90
2017-09-17T10:40:31.862Z,2.77
2017-09-17T10:42:58.550Z,2.47
2017-09-17T10:45:25.240Z,2.57
2017-09-17T10:47:51.866Z,2.87
2017-09-17T10:50:18.618Z,2.40
2017-09-17T10:52:45.270Z,2.60
2017-09-17T10:55:11.932Z,2.53
2017-09-17T10:57:38.633Z,2.33
2017-09-17T11:00:05.270Z,2.80
2017-09-17T11:02:31.904Z,2.17
2017-09-17T11:04:58.568Z,1.93
2017-09-17T11:07:25.210Z,2.30
2017-09-17T11:09:51.889Z,2.20
2017-09-17T11:12:18.561Z,1.80
2017-09-17T11:14:45.200Z,1.47
2017-09-17T11:17:11.857Z,2.47
2017-09-17T11:19:38.488Z,1.73
2017-09-17T11:22:05.152Z,1.70
2017-09-17T11:24:31.836Z,1.60
2017-09-17T11:26:58.486Z,1.00
2017-09-17T11:29:25.125Z,1.20
2017-09-17T11:31:51.787Z,1.80
2017-09-17T11:34:18.443Z,1.57
2017-09-17T11:36:45.124Z,1.23
2017-09-17T11:39:11.775Z,0.90
2017-09-17T11:41:38.429Z,1.00
2017-09-17T11:44:05.100Z,1.50
2017-09-17T11:46:31.769Z,1.17
2017-09-17T11:48:58.400Z,1.40
2017-09-17T11:51:25.064Z,1.30
2017-09-17T11:53:51.723Z,1.10
2017-09-17T11:56:18.361Z,1.30
2017-09-17T11:58:45.026Z,0.90
2017-09-17T12:01:11.664Z,1.30
2017-09-17T12:03:38.368Z,1.13
2017-09-17T12:06:05.043Z,1.67
2017-09-17T12:08:31.748Z,1.23
2017-09-17T12:10:58.408Z,1.30
2017-09-17T12:13:25.042Z,2.10
2017-09-17T12:15:51.763Z,1.13
2017-09-17T12:18:18.501Z,1.97
2017-09-17T12:20:45.241Z,1.37
2017-09-17T12:23:11.909Z,1.20
2017-09-17T12:25:38.578Z,1.10
2017-09-17T12:28:05.219Z,1.13
2017-09-17T12:30:31.924Z,1.20
2017-09-17T12:32:58.557Z,1.00
2017-09-17T12:35:25.192Z,1.40
2017-09-17T12:37:51.853Z,0.80
2017-09-17T12:40:18.519Z,1.00
2017-09-17T12:42:45.289Z,1.10
2017-09-17T12:45:11.921Z,1.03
2017-09-17T12:47:38.666Z,1.07
2017-09-17T12:50:05.407Z,1.10
2017-09-17T12:52:32.044Z,1.40
2017-09-17T12:54:58.674Z,1.20
2017-09-17T12:57:25.328Z,1.13
2017-09-17T12:59:51.959Z,1.30
2017-09-17T13:02:18.617Z,1.40
2017-09-17T13:04:45.291Z,0.90
2017-09-17T13:07:11.927Z,1.30
2017-09-17T13:09:38.615Z,1.00
2017-09-17T13:12:05.355Z,1.00
2017-09-17T13:14:31.979Z,0.90
2017-09-17T13:16:58.649Z,1.00
2017-09-17T13:19:25.312Z,1.07
2017-09-17T13:21:51.981Z,1.00
2017-09-17T13:24:18.628Z,1.30
2017-09-17T13:26:45.291Z,1.10
2017-09-17T13:29:11.919Z,1.50
2017-09-17T13:31:38.553Z,1.03
2017-09-17T13:34:05.300Z,0.80
2017-09-17T13:36:32.038Z,1.13
2017-09-17T13:38:58.779Z,1.27
2017-09-17T13:41:25.518Z,1.20
2017-09-17T13:43:52.200Z,1.20
2017-09-17T13:46:18.831Z,1.17
2017-09-17T13:48:45.469Z,1.33
2017-09-17T13:51:12.135Z,0.90
2017-09-17T13:53:38.891Z,1.20
2017-09-17T13:56:05.572Z,0.87
2017-09-17T13:58:32.210Z,1.10
2017-09-17T14:01:00.585Z,1.07
2017-09-17T14:03:27.223Z,1.30
2017-09-17T14:05:59.552Z,1.00
2017-09-17T14:08:28.090Z,0.87
2017-09-17T14:10:54.741Z,1.17
2017-09-17T14:13:21.395Z,1.10
2017-09-17T14:15:48.022Z,0.90
2017-09-17T14:18:14.655Z,1.17
2017-09-17T14:20:41.319Z,1.27
2017-09-17T14:23:07.949Z,1.40
2017-09-17T14:25:34.623Z,1.17
2017-09-17T14:28:01.257Z,1.20
2017-09-17T14:30:27.887Z,1.10
2017-09-17T14:32:54.567Z,1.30
2017-09-17T14:35:21.231Z,1.20
2017-09-17T14:37:47.865Z,1.10
2017-09-17T14:40:14.527Z,1.10
2017-09-17T14:42:41.190Z,0.97
2017-09-17T14:45:07.821Z,1.10
2017-09-17T14:47:34.570Z,1.10
2017-09-17T14:50:01.228Z,1.20
2017-09-17T14:52:27.887Z,1.07
2017-09-17T14:54:54.543Z,1.20
2017-09-17T14:57:21.211Z,1.20
2017-09-17T14:59:47.967Z,1.10
2017-09-17T15:02:14.600Z,1.00
2017-09-17T15:04:41.343Z,1.20
2017-09-17T15:07:08.082Z,1.10
2017-09-17T15:09:34.823Z,1.30
2017-09-17T15:12:01.478Z,1.30
2017-09-17T15:14:28.134Z,1.60
2017-09-17T15:16:54.763Z,1.23
2017-09-17T15:19:21.476Z,1.07
2017-09-17T15:21:48.106Z,1.50
2017-09-17T15:24:14.780Z,1.17
2017-09-17T15:26:41.493Z,1.20
2017-09-17T15:29:08.124Z,1.33
2017-09-17T15:31:34.789Z,2.10
2017-09-17T15:34:01.434Z,1.43
2017-09-17T15:36:28.140Z,1.37
2017-09-17T15:38:54.887Z,1.70
2017-09-17T15:41:21.626Z,1.50
2017-09-17T15:43:48.316Z,1.43
2017-09-17T15:46:14.944Z,1.70
2017-09-17T15:48:41.589Z,1.70
2017-09-17T15:51:08.270Z,1.50
2017-09-17T15:53:34.928Z,1.33
2017-09-17T15:56:01.563Z,2.20
2017-09-17T15:58:28.232Z,1.70
2017-09-17T16:00:54.863Z,1.80
2017-09-17T16:03:21.501Z,1.47
2017-09-17T16:05:48.164Z,1.90
2017-09-17T16:08:14.833Z,2.27
2017-09-17T16:10:41.475Z,2.73
2017-09-17T16:13:08.153Z,2.70
2017-09-17T16:15:34.782Z,2.50
2017-09-17T16:18:01.416Z,1.90
2017-09-17T16:20:28.106Z,1.43
2017-09-17T16:22:54.736Z,1.70
2017-09-17T16:25:21.411Z,4.60
2017-09-17T16:27:48.080Z,2.17
2017-09-17T16:30:14.728Z,1.70
2017-09-17T16:32:41.433Z,1.80
2017-09-17T16:35:08.108Z,1.83
2017-09-17T16:37:34.747Z,1.13
2017-09-17T16:40:01.380Z,1.07
2017-09-17T16:42:28.043Z,2.47
2017-09-17T16:44:55.589Z,1.60
2017-09-17T16:47:22.222Z,1.80
2017-09-17T16:49:48.955Z,2.00
2017-09-17T16:52:15.607Z,1.97
2017-09-17T16:54:42.241Z,1.50
2017-09-17T16:57:08.908Z,1.60
2017-09-17T16:59:35.543Z,1.73
2017-09-17T17:02:02.175Z,3.17
2017-09-17T17:04:28.958Z,2.00
2017-09-17T17:06:55.604Z,5.60
2017-09-17T17:09:22.241Z,1.63
2017-09-17T17:11:48.916Z,2.07
2017-09-17T17:14:15.621Z,1.73
2017-09-17T17:16:42.294Z,1.90
2017-09-17T17:19:08.936Z,2.13
2017-09-17T17:21:35.596Z,2.00
2017-09-17T17:24:02.264Z,2.40
2017-09-17T17:26:28.897Z,2.13
2017-09-17T17:28:55.528Z,1.90
2017-09-17T17:31:22.225Z,2.30
2017-09-17T17:33:48.858Z,2.10
2017-09-17T17:36:15.516Z,3.07
2017-09-17T17:38:42.218Z,3.67
2017-09-17T17:41:08.918Z,2.83
2017-09-17T17:43:35.583Z,3.63
2017-09-17T17:46:02.220Z,3.20
2017-09-17T17:48:28.875Z,3.40
2017-09-17T17:50:55.522Z,4.40
2017-09-17T17:53:22.166Z,4.60
2017-09-17T17:55:49.786Z,6.03
2017-09-17T17:58:16.446Z,6.27
2017-09-17T18:00:43.132Z,6.30
2017-09-17T18:03:09.777Z,6.87
2017-09-17T18:05:36.468Z,8.87
2017-09-17T18:08:03.099Z,7.37
2017-09-17T18:10:29.761Z,6.50
2017-09-17T18:12:56.448Z,6.20
2017-09-17T18:15:23.091Z,5.43
2017-09-17T18:17:49.793Z,5.23
2017-09-17T18:20:16.456Z,4.50
2017-09-17T18:22:43.284Z,4.23
2017-09-17T18:25:09.927Z,3.27
2017-09-17T18:27:37.416Z,3.37
2017-09-17T18:30:04.142Z,2.40
2017-09-17T18:32:30.863Z,2.63
2017-09-17T18:34:57.523Z,2.30
2017-09-17T18:37:24.268Z,2.60
2017-09-17T18:39:50.963Z,2.23
2017-09-17T18:42:17.617Z,2.63
2017-09-17T18:44:44.287Z,2.87
2017-09-17T18:47:11.040Z,2.60
2017-09-17T18:49:37.723Z,2.70
2017-09-17T18:52:04.651Z,2.80
2017-09-17T18:54:31.457Z,2.73
2017-09-17T18:56:58.181Z,3.03
2017-09-17T18:59:24.888Z,2.90
2017-09-17T19:01:51.612Z,2.90
2017-09-17T19:04:18.500Z,2.50
2017-09-17T19:06:45.250Z,2.90
2017-09-17T19:09:12.007Z,3.10
2017-09-17T19:11:38.706Z,3.10
2017-09-17T19:14:05.455Z,2.93
2017-09-17T19:16:32.186Z,3.80
2017-09-17T19:18:58.874Z,3.87
2017-09-17T19:21:25.544Z,4.20
2017-09-17T19:23:52.314Z,3.70
2017-09-17T19:26:18.991Z,3.40
2017-09-17T19:28:45.699Z,4.10
2017-09-17T19:31:12.353Z,3.30
2017-09-17T19:33:39.028Z,3.20
2017-09-17T19:36:05.711Z,3.37
2017-09-17T19:38:32.439Z,2.73
2017-09-17T19:40:59.096Z,2.77
2017-09-17T19:43:25.805Z,2.97
2017-09-17T19:45:52.476Z,2.83
2017-09-17T19:48:19.279Z,2.83
2017-09-17T19:50:45.996Z,3.10
2017-09-17T19:53:12.712Z,2.90
2017-09-17T19:55:39.374Z,2.70
2017-09-17T19:58:06.072Z,3.70
2017-09-17T20:00:32.778Z,3.70
2017-09-17T20:02:59.449Z,3.60
2017-09-17T20:05:26.163Z,2.80
2017-09-17T20:07:52.870Z,2.80
2017-09-17T20:10:19.594Z,2.70
2017-09-17T20:12:46.274Z,2.60
2017-09-17T20:15:12.947Z,3.20
2017-09-17T20:17:39.728Z,3.97
2017-09-17T20:20:06.421Z,3.90
2017-09-17T20:22:33.084Z,3.50
2017-09-17T20:24:59.723Z,3.50
2017-09-17T20:27:26.395Z,2.73
2017-09-17T20:29:53.052Z,3.33
2017-09-17T20:32:19.702Z,2.70
2017-09-17T20:34:46.375Z,2.90
2017-09-17T20:37:13.052Z,2.50
2017-09-17T20:39:39.736Z,2.80
2017-09-17T20:42:06.394Z,3.10
2017-09-17T20:44:33.076Z,2.27
2017-09-17T20:46:59.725Z,2.50
2017-09-17T20:49:26.412Z,2.47
2017-09-17T20:51:53.060Z,2.60
2017-09-17T20:54:19.752Z,2.73
2017-09-17T20:56:46.410Z,2.50
2017-09-17T20:59:13.055Z,2.80
2017-09-17T21:01:39.744Z,2.60
2017-09-17T21:04:06.382Z,3.10
2017-09-17T21:06:33.058Z,2.70
2017-09-17T21:08:59.713Z,2.33
2017-09-17T21:11:26.352Z,2.27
2017-09-17T21:13:53.055Z,2.60
2017-09-17T21:16:19.698Z,2.13
2017-09-17T21:18:46.322Z,2.50
2017-09-17T21:21:12.980Z,2.73
2017-09-17T21:23:39.620Z,2.73
2017-09-17T21:26:06.324Z,2.63
2017-09-17T21:28:32.964Z,2.23
2017-09-17T21:30:59.659Z,2.43
2017-09-17T21:33:26.293Z,2.40
2017-09-17T21:35:52.936Z,2.00
2017-09-17T21:38:19.600Z,2.43
2017-09-17T21:40:46.286Z,2.17
2017-09-17T21:43:13.001Z,2.23
2017-09-17T21:45:39.632Z,2.10
2017-09-17T21:48:06.263Z,2.30
2017-09-17T21:50:32.918Z,2.13
2017-09-17T21:52:59.559Z,2.10
2017-09-17T21:55:26.226Z,2.10
2017-09-17T21:57:52.863Z,1.73
2017-09-17T22:00:19.498Z,2.03
2017-09-17T22:02:46.172Z,1.50
2017-09-17T22:05:12.842Z,1.70
2017-09-17T22:07:39.512Z,1.73
2017-09-17T22:10:06.184Z,1.40
2017-09-17T22:12:32.857Z,1.43
2017-09-17T22:14:59.478Z,1.40
2017-09-17T22:17:26.160Z,1.10
2017-09-17T22:19:52.803Z,1.40
2017-09-17T22:22:19.444Z,1.43
2017-09-17T22:24:46.118Z,1.10
2017-09-17T22:27:12.796Z,1.10
2017-09-17T22:29:39.437Z,1.20
2017-09-17T22:32:06.080Z,1.20
2017-09-17T22:34:32.745Z,1.30
2017-09-17T22:36:59.406Z,1.20
2017-09-17T22:39:26.056Z,1.40
2017-09-17T22:41:52.729Z,1.20
2017-09-17T22:44:19.371Z,1.20
2017-09-17T22:46:46.015Z,1.00
2017-09-17T22:49:12.682Z,1.00
2017-09-17T22:51:39.315Z,0.90
2017-09-17T22:54:05.997Z,0.93
2017-09-17T22:56:32.640Z,0.80
2017-09-17T22:58:59.281Z,1.00
2017-09-17T23:01:25.945Z,0.70
2017-09-17T23:03:52.674Z,0.73
2017-09-17T23:06:19.318Z,0.63
2017-09-17T23:08:45.997Z,0.90
2017-09-17T23:11:12.661Z,0.73
2017-09-17T23:13:39.312Z,1.00
2017-09-17T23:16:06.012Z,0.70
2017-09-17T23:18:32.641Z,0.80
2017-09-17T23:20:59.288Z,0.80
2017-09-17T23:23:25.955Z,0.93
2017-09-17T23:25:52.627Z,0.90
2017-09-17T23:28:19.296Z,0.70
2017-09-17T23:30:45.932Z,0.50
2017-09-17T23:33:12.566Z,0.70
2017-09-17T23:35:39.224Z,0.90
2017-09-17T23:38:05.899Z,0.63
2017-09-17T23:40:32.564Z,0.50
2017-09-17T23:42:59.198Z,0.50
2017-09-17T23:45:25.831Z,0.50
2017-09-17T23:47:52.498Z,0.50
2017-09-17T23:50:19.127Z,0.60
2017-09-17T23:52:45.780Z,0.50
2017-09-17T23:55:12.464Z,0.40
2017-09-17T23:57:39.104Z,0.40
